sensor_id;sensor_type;location;lat;lon;timestamp;pressure;altitude;pressure_sealevel;temperature;humidity
76106;BME280;64832;45.274;5.880;2023-04-24T14:44:56;98508.63;;;21.92;53.56
76106;BME280;64832;45.274;5.880;2023-04-24T14:47:22;98501.53;;;21.91;54.03
76106;BME280;64832;45.274;5.880;2023-04-24T14:49:48;98502.38;;;21.92;54.08
76106;BME280;64832;45.274;5.880;2023-04-24T14:52:14;98496.09;;;21.91;54.01
76106;BME280;64832;45.274;5.880;2023-04-24T14:54:39;98509.19;;;21.94;53.90
76106;BME280;64832;45.274;5.880;2023-04-24T14:57:05;98507.28;;;21.90;53.81
76106;BME280;64832;45.274;5.880;2023-04-24T14:59:30;98506.13;;;21.86;53.98
76106;BME280;64832;45.274;5.880;2023-04-24T15:01:56;98508.56;;;21.82;54.00
76106;BME280;64832;45.274;5.880;2023-04-24T15:04:28;98504.75;;;21.78;53.84
76106;BME280;64832;45.274;5.880;2023-04-24T15:06:55;98492.75;;;21.69;53.83
76106;BME280;64832;45.274;5.880;2023-04-24T15:09:22;98498.47;;;21.73;53.53
76106;BME280;64832;45.274;5.880;2023-04-24T15:11:49;98502.03;;;21.73;53.59
76106;BME280;64832;45.274;5.880;2023-04-24T15:14:16;98500.09;;;21.74;53.77
76106;BME280;64832;45.274;5.880;2023-04-24T15:16:41;98494.38;;;21.70;54.01
76106;BME280;64832;45.274;5.880;2023-04-24T15:19:07;98503.63;;;21.69;54.12
76106;BME280;64832;45.274;5.880;2023-04-24T15:21:32;98505.53;;;21.68;54.22
76106;BME280;64832;45.274;5.880;2023-04-24T15:23:58;98508.00;;;21.70;54.16
76106;BME280;64832;45.274;5.880;2023-04-24T15:26:24;98498.19;;;21.69;54.03
76106;BME280;64832;45.274;5.880;2023-04-24T15:28:50;98490.28;;;21.67;53.97
76106;BME280;64832;45.274;5.880;2023-04-24T15:31:17;98496.81;;;21.72;54.04
76106;BME280;64832;45.274;5.880;2023-04-24T15:33:42;98497.66;;;21.72;53.99
76106;BME280;64832;45.274;5.880;2023-04-24T15:36:07;98493.56;;;21.75;54.12
76106;BME280;64832;45.274;5.880;2023-04-24T15:38:33;98483.75;;;21.74;54.09
76106;BME280;64832;45.274;5.880;2023-04-24T15:40:58;98493.31;;;21.76;53.93
76106;BME280;64832;45.274;5.880;2023-04-24T15:43:24;98486.50;;;21.79;53.95
76106;BME280;64832;45.274;5.880;2023-04-24T15:45:49;98495.22;;;21.81;53.66
76106;BME280;64832;45.274;5.880;2023-04-24T15:48:15;98486.75;;;21.77;53.65
76106;BME280;64832;45.274;5.880;2023-04-24T15:50:41;98493.56;;;21.75;53.79
76106;BME280;64832;45.274;5.880;2023-04-24T15:53:06;98499.00;;;21.75;53.84
76106;BME280;64832;45.274;5.880;2023-04-24T15:55:32;98505.81;;;21.77;53.61
76106;BME280;64832;45.274;5.880;2023-04-24T15:57:57;98495.47;;;21.74;53.68
76106;BME280;64832;45.274;5.880;2023-04-24T16:00:23;98499.84;;;21.75;53.68
76106;BME280;64832;45.274;5.880;2023-04-24T16:02:48;98498.72;;;21.71;53.57
76106;BME280;64832;45.274;5.880;2023-04-24T16:05:15;98497.38;;;21.74;53.42
76106;BME280;64832;45.274;5.880;2023-04-24T16:07:41;98491.91;;;21.68;53.60
76106;BME280;64832;45.274;5.880;2023-04-24T16:10:06;98498.72;;;21.71;53.48
76106;BME280;64832;45.274;5.880;2023-04-24T16:12:32;98475.84;;;21.62;53.54
76106;BME280;64832;45.274;5.880;2023-04-24T16:14:58;98488.94;;;21.75;53.38
76106;BME280;64832;45.274;5.880;2023-04-24T16:17:23;98487.59;;;21.73;53.26
76106;BME280;64832;45.274;5.880;2023-04-24T16:19:48;98482.69;;;21.75;53.32
76106;BME280;64832;45.274;5.880;2023-04-24T16:22:14;98477.22;;;21.75;53.32
76106;BME280;64832;45.274;5.880;2023-04-24T16:24:39;98488.66;;;21.77;52.98
76106;BME280;64832;45.274;5.880;2023-04-24T16:27:05;98486.78;;;21.82;52.97
76106;BME280;64832;45.274;5.880;2023-04-24T16:29:30;98483.28;;;21.87;53.11
76106;BME280;64832;45.274;5.880;2023-04-24T16:31:56;98484.66;;;21.89;52.92
76106;BME280;64832;45.274;5.880;2023-04-24T16:34:22;98484.34;;;21.86;53.11
76106;BME280;64832;45.274;5.880;2023-04-24T16:36:48;98479.97;;;21.85;53.09
76106;BME280;64832;45.274;5.880;2023-04-24T16:39:13;98485.41;;;21.85;53.13
76106;BME280;64832;45.274;5.880;2023-04-24T16:41:39;98486.28;;;21.90;53.10
76106;BME280;64832;45.274;5.880;2023-04-24T16:44:04;98484.09;;;21.87;53.07
76106;BME280;64832;45.274;5.880;2023-04-24T16:46:30;98485.75;;;21.88;53.08
76106;BME280;64832;45.274;5.880;2023-04-24T16:48:56;98485.75;;;21.88;53.16
76106;BME280;64832;45.274;5.880;2023-04-24T16:51:22;98476.16;;;21.86;53.22
76106;BME280;64832;45.274;5.880;2023-04-24T16:53:47;98488.13;;;21.85;53.09
76106;BME280;64832;45.274;5.880;2023-04-24T16:56:12;98484.63;;;21.84;53.33
76106;BME280;64832;45.274;5.880;2023-04-24T16:58:38;98485.41;;;21.85;53.19
76106;BME280;64832;45.274;5.880;2023-04-24T17:01:04;98479.19;;;21.84;53.28
76106;BME280;64832;45.274;5.880;2023-04-24T17:03:29;98488.13;;;21.80;53.41
76106;BME280;64832;45.274;5.880;2023-04-24T17:05:55;98486.50;;;21.79;53.31
76106;BME280;64832;45.274;5.880;2023-04-24T17:08:20;98487.31;;;21.79;53.47
76106;BME280;64832;45.274;5.880;2023-04-24T17:10:48;98487.06;;;21.76;53.66
76106;BME280;64832;45.274;5.880;2023-04-24T17:13:13;98489.78;;;21.76;53.61
76106;BME280;64832;45.274;5.880;2023-04-24T17:15:40;98481.03;;;21.74;53.54
76106;BME280;64832;45.274;5.880;2023-04-24T17:18:06;98482.69;;;21.75;53.71
76106;BME280;64832;45.274;5.880;2023-04-24T17:20:31;98486.22;;;21.75;53.70
76106;BME280;64832;45.274;5.880;2023-04-24T17:22:57;98495.75;;;21.73;53.60
76106;BME280;64832;45.274;5.880;2023-04-24T17:25:22;98493.28;;;21.71;53.66
76106;BME280;64832;45.274;5.880;2023-04-24T17:27:47;98503.38;;;21.71;53.51
76106;BME280;64832;45.274;5.880;2023-04-24T17:30:13;98500.91;;;21.69;53.94
76106;BME280;64832;45.274;5.880;2023-04-24T17:32:39;98499.25;;;21.68;53.75
76106;BME280;64832;45.274;5.880;2023-04-24T17:35:05;98503.09;;;21.67;53.89
76106;BME280;64832;45.274;5.880;2023-04-24T17:37:32;98505.81;;;21.67;53.81
76106;BME280;64832;45.274;5.880;2023-04-24T17:39:57;98504.16;;;21.66;53.92
76106;BME280;64832;45.274;5.880;2023-04-24T17:42:23;98510.72;;;21.65;53.75
76106;BME280;64832;45.274;5.880;2023-04-24T17:44:48;98493.50;;;21.54;53.62
76106;BME280;64832;45.274;5.880;2023-04-24T17:47:14;98509.59;;;21.61;53.77
76106;BME280;64832;45.274;5.880;2023-04-24T17:49:39;98513.13;;;21.61;53.84
76106;BME280;64832;45.274;5.880;2023-04-24T17:52:05;98506.03;;;21.60;53.55
76106;BME280;64832;45.274;5.880;2023-04-24T17:54:31;98510.66;;;21.60;53.63
76106;BME280;64832;45.274;5.880;2023-04-24T17:56:56;98509.28;;;21.57;53.32
76106;BME280;64832;45.274;5.880;2023-04-24T17:59:22;98519.09;;;21.58;53.48
76106;BME280;64832;45.274;5.880;2023-04-24T18:01:48;98523.19;;;21.56;53.57
76106;BME280;64832;45.274;5.880;2023-04-24T18:04:13;98515.84;;;21.56;53.27
76106;BME280;64832;45.274;5.880;2023-04-24T18:06:39;98520.47;;;21.56;53.36
76106;BME280;64832;45.274;5.880;2023-04-24T18:09:04;98524.53;;;21.53;53.28
76106;BME280;64832;45.274;5.880;2023-04-24T18:11:30;98526.16;;;21.54;53.18
76106;BME280;64832;45.274;5.880;2023-04-24T18:13:55;98522.88;;;21.52;53.40
76106;BME280;64832;45.274;5.880;2023-04-24T18:16:21;98526.97;;;21.50;53.16
76106;BME280;64832;45.274;5.880;2023-04-24T18:18:46;98530.75;;;21.49;53.27
76106;BME280;64832;45.274;5.880;2023-04-24T18:21:11;98524.78;;;21.47;53.11
76106;BME280;64832;45.274;5.880;2023-04-24T18:23:37;98528.31;;;21.47;53.17
76106;BME280;64832;45.274;5.880;2023-04-24T18:26:02;98534.00;;;21.46;53.24
76106;BME280;64832;45.274;5.880;2023-04-24T18:28:28;98539.72;;;21.44;53.06
76106;BME280;64832;45.274;5.880;2023-04-24T18:30:56;98540.56;;;21.45;53.20
76106;BME280;64832;45.274;5.880;2023-04-24T18:33:22;98532.91;;;21.42;53.18
76106;BME280;64832;45.274;5.880;2023-04-24T18:35:47;98529.38;;;21.41;53.09
76106;BME280;64832;45.274;5.880;2023-04-24T18:38:12;98536.47;;;21.42;53.02
76106;BME280;64832;45.274;5.880;2023-04-24T18:40:38;98539.72;;;21.44;53.01
76106;BME280;64832;45.274;5.880;2023-04-24T18:43:03;98534.56;;;21.43;52.46
76106;BME280;64832;45.274;5.880;2023-04-24T18:45:29;98534.81;;;21.41;52.20
76106;BME280;64832;45.274;5.880;2023-04-24T18:47:54;98531.03;;;21.42;52.30
76106;BME280;64832;45.274;5.880;2023-04-24T18:50:19;98533.97;;;21.41;52.09
76106;BME280;64832;45.274;5.880;2023-04-24T18:52:46;98536.97;;;21.39;52.10
76106;BME280;64832;45.274;5.880;2023-04-24T18:55:11;98543.50;;;21.38;52.25
76106;BME280;64832;45.274;5.880;2023-04-24T18:57:37;98541.88;;;21.37;52.21
76106;BME280;64832;45.274;5.880;2023-04-24T19:00:03;98551.94;;;21.37;52.14
76106;BME280;64832;45.274;5.880;2023-04-24T19:02:28;98546.75;;;21.35;52.05
76106;BME280;64832;45.274;5.880;2023-04-24T19:04:54;98551.13;;;21.36;52.08
76106;BME280;64832;45.274;5.880;2023-04-24T19:07:19;98553.00;;;21.36;52.00
76106;BME280;64832;45.274;5.880;2023-04-24T19:09:45;98559.53;;;21.35;52.10
76106;BME280;64832;45.274;5.880;2023-04-24T19:12:11;98558.72;;;21.34;52.05
76106;BME280;64832;45.274;5.880;2023-04-24T19:14:36;98573.41;;;21.33;52.01
76106;BME280;64832;45.274;5.880;2023-04-24T19:17:02;98580.50;;;21.34;52.09
76106;BME280;64832;45.274;5.880;2023-04-24T19:19:27;98574.22;;;21.34;52.15
76106;BME280;64832;45.274;5.880;2023-04-24T19:21:53;98577.19;;;21.32;51.74
76106;BME280;64832;45.274;5.880;2023-04-24T19:24:19;98577.19;;;21.32;51.82
76106;BME280;64832;45.274;5.880;2023-04-24T19:26:45;98579.66;;;21.29;51.84
76106;BME280;64832;45.274;5.880;2023-04-24T19:29:11;98575.00;;;21.29;51.67
76106;BME280;64832;45.274;5.880;2023-04-24T19:31:36;98573.09;;;21.30;51.73
76106;BME280;64832;45.274;5.880;2023-04-24T19:34:02;98583.44;;;21.28;51.69
76106;BME280;64832;45.274;5.880;2023-04-24T19:36:28;98595.16;;;21.28;51.86
